createdAt,value
2022-09-18T00:01:52.100Z,54099.56
2022-09-18T00:04:20.556Z,54137.34
2022-09-18T00:06:49.306Z,54113.47
2022-09-18T00:09:17.772Z,54151.25
2022-09-18T00:11:50.551Z,54127.38
2022-09-18T00:14:22.103Z,54159.19
2022-09-18T00:16:50.852Z,54165.16
2022-09-18T00:19:20.248Z,54151.25
2022-09-18T00:21:50.863Z,54195.00
2022-09-18T00:24:20.280Z,54193.00
2022-09-18T00:26:50.560Z,54173.13
2022-09-18T00:29:19.605Z,54175.13
2022-09-18T00:31:48.256Z,54185.06
2022-09-18T00:34:17.090Z,54157.22
2022-09-18T00:36:45.915Z,54179.09
2022-09-18T00:39:14.813Z,54155.22
2022-09-18T00:41:44.943Z,54147.28
2022-09-18T00:44:38.741Z,54191.03
2022-09-18T00:47:22.200Z,54163.19
2022-09-18T00:49:56.038Z,54169.16
2022-09-18T00:52:29.322Z,54135.34
2022-09-18T00:55:03.953Z,54153.25
2022-09-18T00:57:35.195Z,54117.44
2022-09-18T01:00:12.516Z,54135.34
2022-09-18T01:02:41.780Z,54129.38
2022-09-18T01:05:12.797Z,54139.31
2022-09-18T01:07:56.625Z,54169.16
2022-09-18T01:10:39.274Z,54183.06
2022-09-18T01:13:14.868Z,54202.94
2022-09-18T01:15:53.940Z,54220.84
2022-09-18T01:18:28.990Z,54270.56
2022-09-18T01:21:10.820Z,54300.38
2022-09-18T01:24:13.155Z,54330.22
2022-09-18T01:26:54.159Z,54405.78
2022-09-18T01:29:37.005Z,54467.44
2022-09-18T01:32:10.437Z,54556.91
2022-09-18T01:34:47.189Z,54636.47
2022-09-18T01:37:22.345Z,54700.09
2022-09-18T01:39:57.207Z,54751.81
2022-09-18T01:42:29.928Z,54807.50
2022-09-18T01:45:06.956Z,54918.88
2022-09-18T01:47:41.209Z,54950.69
2022-09-18T01:50:13.241Z,55089.94
2022-09-18T01:52:47.887Z,55115.78
2022-09-18T01:55:20.893Z,55135.66
2022-09-18T01:57:56.240Z,55286.84
2022-09-18T02:00:26.383Z,55384.31
2022-09-18T02:03:02.114Z,55372.38
2022-09-18T02:05:36.321Z,55501.66
2022-09-18T02:08:13.259Z,55609.09
2022-09-18T02:10:49.316Z,55668.78
2022-09-18T02:13:25.617Z,55732.44
2022-09-18T02:16:01.829Z,55806.03
2022-09-18T02:18:35.890Z,55817.97
2022-09-18T02:21:09.638Z,55849.81
2022-09-18T02:23:40.564Z,55897.56
2022-09-18T02:26:11.132Z,55929.38
2022-09-18T02:28:41.326Z,55937.34
2022-09-18T02:31:13.004Z,55937.34
2022-09-18T02:33:44.823Z,56052.72
2022-09-18T02:36:34.122Z,56086.56
2022-09-18T02:39:16.198Z,56146.25
2022-09-18T02:41:51.418Z,56203.94
2022-09-18T02:44:28.025Z,56207.94
2022-09-18T02:47:05.987Z,56283.53
2022-09-18T02:49:44.125Z,56396.94
2022-09-18T02:52:19.352Z,56390.97
2022-09-18T02:54:54.169Z,56518.31
2022-09-18T02:57:28.340Z,56566.09
2022-09-18T03:00:00.700Z,56629.75
2022-09-18T03:02:31.154Z,56741.19
2022-09-18T03:04:59.773Z,56784.97
2022-09-18T03:07:35.320Z,57043.69
2022-09-18T03:10:03.810Z,57135.22
2022-09-18T03:12:32.618Z,57274.53
2022-09-18T03:15:01.007Z,57499.44
2022-09-18T03:17:30.824Z,57730.34
2022-09-18T03:19:59.157Z,57915.47
2022-09-18T03:22:27.543Z,58202.13
2022-09-18T03:24:55.937Z,58540.59
2022-09-18T03:27:26.044Z,58908.97
2022-09-18T03:29:54.516Z,59273.38
2022-09-18T03:32:25.681Z,59613.94
2022-09-18T03:34:55.649Z,59846.97
2022-09-18T03:37:24.408Z,60259.28
2022-09-18T03:39:53.866Z,60669.66
2022-09-18T03:42:22.360Z,61221.56
2022-09-18T03:44:52.512Z,61600.19
2022-09-18T03:47:31.941Z,62253.88
2022-09-18T03:50:09.030Z,62831.97
2022-09-18T03:52:38.827Z,63655.38
2022-09-18T03:55:27.560Z,64255.63
2022-09-18T03:58:21.769Z,64570.75
2022-09-18T04:01:14.052Z,64919.81
2022-09-18T04:04:02.640Z,65466.44
2022-09-18T04:06:32.454Z,66142.84
2022-09-18T04:09:14.283Z,66539.97
2022-09-18T04:11:48.985Z,66879.25
2022-09-18T04:14:17.493Z,67508.00
2022-09-18T04:16:46.986Z,67875.34
2022-09-18T04:19:15.434Z,68027.06
2022-09-18T04:21:45.237Z,67583.88
2022-09-18T04:24:13.576Z,67895.31
2022-09-18T04:26:41.976Z,68075.00
2022-09-18T04:29:10.964Z,68414.44
2022-09-18T04:31:39.558Z,68777.88
2022-09-18T04:34:15.045Z,69245.19
2022-09-18T04:36:45.214Z,69277.16
2022-09-18T04:39:13.836Z,69361.03
2022-09-18T04:41:45.518Z,69512.84
2022-09-18T04:44:15.634Z,69277.16
2022-09-18T04:46:45.011Z,69047.47
2022-09-18T04:49:17.345Z,68969.59
2022-09-18T04:51:47.393Z,69111.38
2022-09-18T04:54:17.292Z,69299.13
2022-09-18T04:56:46.296Z,69001.53
2022-09-18T04:59:15.485Z,69516.84
2022-09-18T05:01:47.340Z,69251.19
2022-09-18T05:04:20.748Z,69403.00
2022-09-18T05:06:59.770Z,69818.47
2022-09-18T05:09:28.276Z,70024.22
2022-09-18T05:11:57.208Z,69790.50
2022-09-18T05:14:26.713Z,70052.19
2022-09-18T05:16:59.613Z,69962.31
2022-09-18T05:19:38.350Z,69678.66
2022-09-18T05:22:14.406Z,69403.00
2022-09-18T05:24:47.913Z,69698.63
2022-09-18T05:27:16.597Z,69620.72
2022-09-18T05:29:44.981Z,69229.22
2022-09-18T05:32:20.328Z,68162.84
2022-09-18T05:34:50.201Z,68186.81
2022-09-18T05:37:20.753Z,68703.97
2022-09-18T05:39:53.867Z,68488.31
2022-09-18T05:42:22.452Z,68484.31
2022-09-18T05:44:51.258Z,67867.34
2022-09-18T05:47:24.656Z,67889.31
2022-09-18T05:49:53.213Z,67140.72
2022-09-18T05:52:26.285Z,66512.00
2022-09-18T05:54:55.096Z,66518.00
2022-09-18T05:57:23.513Z,66426.19
2022-09-18T05:59:52.376Z,65691.88
2022-09-18T06:02:21.292Z,65274.91
2022-09-18T06:05:10.411Z,65121.31
2022-09-18T06:07:41.454Z,64463.06
2022-09-18T06:10:10.079Z,64139.97
2022-09-18T06:12:38.593Z,64726.34
2022-09-18T06:15:07.935Z,63741.13
2022-09-18T06:17:36.970Z,62792.09
2022-09-18T06:20:07.887Z,62668.50
2022-09-18T06:22:36.570Z,62353.53
2022-09-18T06:25:07.180Z,63039.28
2022-09-18T06:27:36.656Z,62421.31
2022-09-18T06:30:06.277Z,62160.22
2022-09-18T06:32:36.780Z,62411.34
2022-09-18T06:35:05.689Z,61687.88
2022-09-18T06:37:35.894Z,60516.25
2022-09-18T06:40:25.670Z,60185.56
2022-09-18T06:43:14.238Z,59733.44
2022-09-18T06:46:01.252Z,59450.63
2022-09-18T06:48:38.291Z,58837.28
2022-09-18T06:51:07.547Z,59329.13
2022-09-18T06:53:48.726Z,59643.81
2022-09-18T06:56:18.620Z,59221.59
2022-09-18T06:58:47.041Z,59042.38
2022-09-18T07:01:20.438Z,58825.31
2022-09-18T07:03:51.873Z,58938.81
2022-09-18T07:06:26.643Z,57587.03
2022-09-18T07:08:55.388Z,57163.09
2022-09-18T07:12:04.026Z,56627.78
2022-09-18T07:14:43.022Z,56522.31
2022-09-18T07:17:17.920Z,56430.78
2022-09-18T07:19:49.931Z,56323.31
2022-09-18T07:22:20.457Z,56100.47
2022-09-18T07:24:49.427Z,56034.81
2022-09-18T07:27:19.218Z,55792.13
2022-09-18T07:29:48.400Z,55869.69
2022-09-18T07:32:17.383Z,55955.25
2022-09-18T07:34:47.234Z,55547.44
2022-09-18T07:37:22.190Z,55694.63
2022-09-18T07:39:59.221Z,55368.41
2022-09-18T07:43:06.671Z,55332.59
2022-09-18T07:45:36.618Z,55155.56
2022-09-18T07:48:06.442Z,55288.84
2022-09-18T07:50:39.872Z,55306.72
2022-09-18T07:53:11.664Z,55603.13
2022-09-18T07:55:45.425Z,55674.75
2022-09-18T07:58:16.089Z,55746.34
2022-09-18T08:01:10.902Z,55933.38
2022-09-18T08:03:45.131Z,56088.53
2022-09-18T08:06:13.785Z,56120.38
2022-09-18T08:09:05.860Z,56585.97
2022-09-18T08:11:54.349Z,56502.41
2022-09-18T08:14:31.962Z,56462.59
2022-09-18T08:17:20.615Z,56725.28
2022-09-18T08:20:20.485Z,57099.41
2022-09-18T08:22:55.696Z,57991.13
2022-09-18T08:25:28.592Z,58608.28
2022-09-18T08:28:01.747Z,58787.50
2022-09-18T08:30:48.578Z,59476.50
2022-09-18T08:33:17.375Z,59799.16
2022-09-18T08:35:46.348Z,59078.22
2022-09-18T08:38:32.537Z,58966.69
2022-09-18T08:41:35.099Z,58681.97
2022-09-18T08:44:09.622Z,59133.97
2022-09-18T08:46:43.766Z,59010.50
2022-09-18T08:49:24.947Z,58994.56
2022-09-18T08:52:03.855Z,59500.41
2022-09-18T08:54:45.313Z,60731.44
2022-09-18T08:57:46.943Z,61024.31
2022-09-18T09:00:22.191Z,62728.28
2022-09-18T09:03:05.271Z,62397.41
2022-09-18T09:05:39.642Z,63689.28
2022-09-18T09:08:24.558Z,63996.38
2022-09-18T09:11:02.478Z,64048.22
2022-09-18T09:14:06.091Z,64421.19
2022-09-18T09:16:43.904Z,65225.03
2022-09-18T09:19:29.297Z,64618.63
2022-09-18T09:22:05.741Z,69502.88
2022-09-18T09:24:42.544Z,65248.97
2022-09-18T09:27:36.533Z,67841.41
2022-09-18T09:30:23.979Z,64532.88
2022-09-18T09:33:23.381Z,62379.47
2022-09-18T09:36:15.388Z,63170.88
2022-09-18T09:38:58.720Z,59866.88
2022-09-18T09:41:34.471Z,60578.03
2022-09-18T09:44:16.202Z,61687.88
2022-09-18T09:46:56.300Z,58879.09
2022-09-18T09:49:27.990Z,57378.03
2022-09-18T09:52:09.706Z,57441.72
2022-09-18T09:54:39.773Z,56643.69
2022-09-18T09:57:23.790Z,56102.47
2022-09-18T10:00:05.021Z,55738.41
2022-09-18T10:03:22.826Z,55223.19
2022-09-18T10:05:59.066Z,55169.50
2022-09-18T10:08:36.860Z,55300.75
2022-09-18T10:11:11.441Z,55376.34
2022-09-18T10:13:46.014Z,55229.16
2022-09-18T10:16:19.904Z,55463.88
2022-09-18T10:18:52.875Z,55736.41
2022-09-18T10:21:27.163Z,55630.97
2022-09-18T10:24:03.287Z,56018.91
2022-09-18T10:26:38.833Z,55398.22
2022-09-18T10:29:07.998Z,55372.38
2022-09-18T10:31:50.918Z,55495.69
2022-09-18T10:34:40.016Z,55272.91
2022-09-18T10:37:15.891Z,55201.31
2022-09-18T10:39:54.353Z,54994.47
2022-09-18T10:42:25.700Z,55113.78
2022-09-18T10:45:04.901Z,55056.13
2022-09-18T10:47:38.106Z,54879.09
2022-09-18T10:50:19.246Z,54875.13
2022-09-18T10:52:54.238Z,54801.53
2022-09-18T10:55:30.275Z,54712.03
2022-09-18T10:58:15.867Z,54580.78
2022-09-18T11:00:56.690Z,54507.19
2022-09-18T11:03:38.918Z,54389.88
2022-09-18T11:06:15.772Z,54385.91
2022-09-18T11:08:49.151Z,54360.03
2022-09-18T11:11:27.625Z,54292.44
2022-09-18T11:14:00.988Z,54340.16
2022-09-18T11:16:39.685Z,54302.38
2022-09-18T11:19:16.051Z,54298.41
2022-09-18T11:21:47.725Z,54306.34
2022-09-18T11:24:22.805Z,54258.63
2022-09-18T11:26:54.308Z,54238.75
2022-09-18T11:29:30.885Z,54260.63
2022-09-18T11:32:17.342Z,54027.97
2022-09-18T11:34:52.115Z,54135.34
2022-09-18T11:37:29.619Z,54294.41
2022-09-18T11:40:03.946Z,54564.88
2022-09-18T11:42:35.146Z,54656.34
2022-09-18T11:45:28.629Z,54767.72
2022-09-18T11:48:05.623Z,54948.72
2022-09-18T11:50:38.285Z,55185.41
2022-09-18T11:53:15.783Z,55264.97
2022-09-18T11:55:50.180Z,55334.59
2022-09-18T11:58:25.682Z,55457.91
2022-09-18T12:01:04.916Z,55613.06
2022-09-18T12:03:44.054Z,55320.66
2022-09-18T12:06:19.861Z,55549.41
2022-09-18T12:08:54.493Z,55392.25
2022-09-18T12:11:31.459Z,55467.84
2022-09-18T12:14:09.497Z,55770.22
2022-09-18T12:16:51.089Z,55891.59
2022-09-18T12:19:25.394Z,56207.94
2022-09-18T12:22:00.057Z,56466.59
2022-09-18T12:24:29.976Z,57101.41
2022-09-18T12:27:14.262Z,57342.22
2022-09-18T12:29:56.525Z,57744.28
2022-09-18T12:32:46.753Z,58056.81
2022-09-18T12:35:24.362Z,59066.25
2022-09-18T12:38:05.683Z,59289.31
2022-09-18T12:40:44.426Z,59016.47
2022-09-18T12:43:34.002Z,59161.84
2022-09-18T12:46:29.189Z,59874.84
2022-09-18T12:49:10.151Z,61307.25
2022-09-18T12:51:43.769Z,59922.66
2022-09-18T12:54:36.196Z,60346.94
2022-09-18T12:57:20.938Z,61217.59
2022-09-18T12:59:56.887Z,61869.22
2022-09-18T13:02:37.806Z,61580.25
2022-09-18T13:05:14.243Z,62070.50
2022-09-18T13:07:48.027Z,62552.88
2022-09-18T13:10:22.502Z,62538.94
2022-09-18T13:13:01.378Z,62493.06
2022-09-18T13:15:34.472Z,62062.53
2022-09-18T13:18:17.809Z,62465.16
2022-09-18T13:20:47.269Z,61273.38
2022-09-18T13:23:21.108Z,61125.91
2022-09-18T13:25:51.849Z,62018.69
2022-09-18T13:28:22.895Z,61640.03
2022-09-18T13:31:29.908Z,62499.06
2022-09-18T13:34:02.759Z,62897.75
2022-09-18T13:36:34.860Z,62897.75
2022-09-18T13:39:06.899Z,62178.16
2022-09-18T13:41:44.979Z,63067.19
2022-09-18T13:44:20.908Z,62477.13
2022-09-18T13:46:51.349Z,63667.34
2022-09-18T13:49:28.950Z,64770.22
2022-09-18T13:52:18.362Z,65059.47
2022-09-18T13:55:01.320Z,65189.13
2022-09-18T13:57:33.716Z,66973.06
2022-09-18T14:00:09.299Z,67875.34
2022-09-18T14:02:41.588Z,68897.69
2022-09-18T14:05:31.125Z,70663.56
2022-09-18T14:08:04.667Z,70861.38
2022-09-18T14:11:16.969Z,68522.25
2022-09-18T14:13:54.493Z,67440.13
2022-09-18T14:16:43.667Z,68192.78
2022-09-18T14:19:32.342Z,69193.28
2022-09-18T14:22:03.847Z,66152.81
2022-09-18T14:24:57.427Z,64582.72
2022-09-18T14:27:41.144Z,62919.69
2022-09-18T14:30:19.725Z,62658.53
2022-09-18T14:33:03.459Z,61390.94
2022-09-18T14:35:38.353Z,62379.47
2022-09-18T14:38:25.025Z,61966.88
2022-09-18T14:40:59.492Z,62062.53
2022-09-18T14:43:28.373Z,62186.13
2022-09-18T14:45:57.794Z,61954.91
2022-09-18T14:48:30.672Z,61903.09
2022-09-18T14:51:02.191Z,61893.13
2022-09-18T14:53:32.499Z,61933.00
2022-09-18T14:56:06.571Z,62365.50
2022-09-18T14:58:39.713Z,60950.59
2022-09-18T15:01:15.220Z,61127.91
2022-09-18T15:03:47.595Z,61699.81
2022-09-18T15:06:21.416Z,62150.25
2022-09-18T15:08:54.621Z,62299.72
2022-09-18T15:11:25.772Z,62182.13
2022-09-18T15:13:58.041Z,62439.25
2022-09-18T15:16:29.648Z,62979.47
2022-09-18T15:18:59.588Z,62919.69
2022-09-18T15:21:33.242Z,62628.63
2022-09-18T15:24:05.115Z,63286.50
2022-09-18T15:26:40.826Z,62839.94
2022-09-18T15:29:19.751Z,63779.03
2022-09-18T15:31:48.828Z,63904.66
2022-09-18T15:34:21.816Z,61994.78
2022-09-18T15:36:57.330Z,62546.91
2022-09-18T15:39:32.841Z,62086.47
2022-09-18T15:42:22.467Z,61980.81
2022-09-18T15:45:21.804Z,61960.91
2022-09-18T15:47:51.758Z,62357.53
2022-09-18T15:50:36.301Z,62540.91
2022-09-18T15:53:22.186Z,63244.66
2022-09-18T15:55:58.580Z,63469.94
2022-09-18T15:58:37.126Z,62943.59
2022-09-18T16:01:09.457Z,63483.91
2022-09-18T16:03:39.316Z,63378.22
2022-09-18T16:06:09.086Z,63509.81
2022-09-18T16:08:40.437Z,63565.66
2022-09-18T16:11:39.109Z,63958.50
2022-09-18T16:14:38.385Z,64199.81
2022-09-18T16:17:36.986Z,65027.53
2022-09-18T16:20:26.010Z,65408.59
2022-09-18T16:22:57.835Z,64780.19
2022-09-18T16:25:30.067Z,66188.72
2022-09-18T16:28:02.286Z,66569.88
2022-09-18T16:30:33.802Z,65626.03
2022-09-18T16:33:15.098Z,66204.69
2022-09-18T16:35:43.591Z,66134.84
2022-09-18T16:38:12.034Z,65779.69
2022-09-18T16:40:42.779Z,67084.81
2022-09-18T16:43:16.256Z,67216.56
2022-09-18T16:45:44.997Z,68168.84
2022-09-18T16:48:13.598Z,68274.66
2022-09-18T16:50:42.249Z,69005.53
2022-09-18T16:53:11.070Z,69293.13
2022-09-18T16:55:43.818Z,70106.13
2022-09-18T16:58:15.168Z,71291.03
2022-09-18T17:00:43.901Z,71698.75
2022-09-18T17:03:13.064Z,71029.25
2022-09-18T17:05:41.981Z,70609.63
2022-09-18T17:08:10.737Z,70208.03
2022-09-18T17:10:43.217Z,68570.19
2022-09-18T17:13:15.503Z,69882.41
2022-09-18T17:15:45.092Z,70781.47
2022-09-18T17:18:13.622Z,69608.72
2022-09-18T17:20:42.520Z,67508.00
2022-09-18T17:23:11.075Z,68731.94
2022-09-18T17:25:39.643Z,69141.34
2022-09-18T17:28:08.096Z,69770.53
2022-09-18T17:30:41.609Z,69688.63
2022-09-18T17:33:10.600Z,67539.94
2022-09-18T17:35:39.734Z,68999.53
2022-09-18T17:38:08.777Z,68116.94
2022-09-18T17:40:37.437Z,64977.69
2022-09-18T17:43:06.545Z,64670.50
2022-09-18T17:45:35.235Z,64046.25
2022-09-18T17:48:08.240Z,65061.47
2022-09-18T17:50:36.873Z,63781.00
2022-09-18T17:53:05.473Z,63135.00
2022-09-18T17:55:34.484Z,63902.66
2022-09-18T17:58:02.957Z,63256.59
2022-09-18T18:00:31.806Z,63808.94
2022-09-18T18:03:00.419Z,63771.03
2022-09-18T18:05:30.987Z,64070.16
2022-09-18T18:07:59.770Z,64814.09
2022-09-18T18:10:29.623Z,63934.56
2022-09-18T18:13:01.835Z,63737.16
2022-09-18T18:15:30.386Z,63908.63
2022-09-18T18:17:59.923Z,64397.25
2022-09-18T18:20:32.039Z,64157.91
2022-09-18T18:23:00.789Z,64798.16
2022-09-18T18:25:29.556Z,65231.03
2022-09-18T18:27:58.188Z,65350.72
2022-09-18T18:30:27.573Z,65775.69
2022-09-18T18:32:57.938Z,66434.19
2022-09-18T18:35:26.989Z,66629.75
2022-09-18T18:37:57.171Z,66188.72
2022-09-18T18:40:27.453Z,66615.78
2022-09-18T18:42:55.962Z,67110.78
2022-09-18T18:45:37.693Z,67316.38
2022-09-18T18:48:09.702Z,67769.53
2022-09-18T18:50:45.320Z,68025.09
2022-09-18T18:53:15.870Z,68254.69
2022-09-18T18:55:48.460Z,68715.97
2022-09-18T18:58:17.577Z,69199.28
2022-09-18T19:00:46.759Z,68450.38
2022-09-18T19:03:15.896Z,67583.88
2022-09-18T19:05:44.668Z,67679.69
2022-09-18T19:08:14.575Z,66929.13
2022-09-18T19:10:43.561Z,65967.25
2022-09-18T19:13:12.564Z,65241.00
2022-09-18T19:15:41.348Z,64514.91
2022-09-18T19:18:10.658Z,64383.28
2022-09-18T19:20:39.042Z,64024.31
2022-09-18T19:23:13.237Z,63751.09
2022-09-18T19:25:43.883Z,63398.16
2022-09-18T19:28:14.599Z,63210.75
2022-09-18T19:30:43.613Z,62580.78
2022-09-18T19:33:16.079Z,62580.78
2022-09-18T19:35:44.923Z,62391.41
2022-09-18T19:38:19.887Z,62194.09
2022-09-18T19:40:55.959Z,61799.47
2022-09-18T19:43:29.349Z,61369.03
2022-09-18T19:46:00.930Z,60986.44
2022-09-18T19:48:29.833Z,60707.50
2022-09-18T19:50:58.520Z,60265.25
2022-09-18T19:53:27.619Z,59918.66
2022-09-18T19:55:57.714Z,59747.38
2022-09-18T19:58:27.360Z,59739.41
2022-09-18T20:00:55.991Z,59617.91
2022-09-18T20:03:24.679Z,59874.84
2022-09-18T20:05:53.463Z,59767.28
2022-09-18T20:08:22.386Z,59506.38
2022-09-18T20:10:51.041Z,59404.81
2022-09-18T20:13:21.274Z,59341.09
2022-09-18T20:16:00.365Z,59546.22
2022-09-18T20:18:29.660Z,59520.31
2022-09-18T20:20:58.202Z,59476.50
2022-09-18T20:23:33.530Z,59321.16
2022-09-18T20:26:02.336Z,59249.47
2022-09-18T20:28:33.857Z,59412.78
2022-09-18T20:31:04.174Z,59398.84
2022-09-18T20:33:33.212Z,59424.72
2022-09-18T20:36:02.661Z,59376.94
2022-09-18T20:38:32.306Z,59094.16
2022-09-18T20:41:06.580Z,59420.75
2022-09-18T20:43:38.976Z,59516.34
2022-09-18T20:46:12.667Z,59159.84
2022-09-18T20:48:42.952Z,59056.31
2022-09-18T20:51:13.370Z,59058.31
2022-09-18T20:53:45.852Z,59086.19
2022-09-18T20:56:21.686Z,58990.59
2022-09-18T20:58:52.887Z,59004.53
2022-09-18T21:01:23.341Z,58910.94
2022-09-18T21:03:56.658Z,58938.81
2022-09-18T21:06:27.236Z,59028.44
2022-09-18T21:08:56.726Z,58781.53
2022-09-18T21:11:27.521Z,58763.59
2022-09-18T21:14:00.311Z,58861.16
2022-09-18T21:16:30.908Z,58821.34
2022-09-18T21:19:02.143Z,58833.28
2022-09-18T21:21:35.368Z,58642.13
2022-09-18T21:24:05.468Z,58699.88
2022-09-18T21:26:35.931Z,58528.66
2022-09-18T21:29:07.904Z,58140.44
2022-09-18T21:31:38.656Z,58178.25
2022-09-18T21:34:07.672Z,58124.50
2022-09-18T21:36:38.866Z,57813.94
2022-09-18T21:39:08.591Z,57855.75
2022-09-18T21:41:39.456Z,57668.66
2022-09-18T21:44:10.636Z,57533.28
2022-09-18T21:46:40.547Z,57240.72
2022-09-18T21:49:09.603Z,57200.91
2022-09-18T21:51:40.848Z,57127.28
2022-09-18T21:54:14.715Z,57135.22
2022-09-18T21:56:44.217Z,57310.38
2022-09-18T21:59:16.363Z,57423.81
2022-09-18T22:01:45.184Z,57612.91
2022-09-18T22:04:13.940Z,57913.47
2022-09-18T22:06:46.791Z,57764.19
2022-09-18T22:09:17.575Z,57915.47
2022-09-18T22:11:47.749Z,58094.63
2022-09-18T22:14:20.297Z,58150.38
2022-09-18T22:16:48.923Z,58060.78
2022-09-18T22:19:18.727Z,58230.00
2022-09-18T22:21:49.667Z,58486.84
2022-09-18T22:24:20.035Z,58849.22
2022-09-18T22:26:53.185Z,58932.84
2022-09-18T22:29:26.824Z,59223.59
2022-09-18T22:31:55.460Z,59273.38
2022-09-18T22:34:26.516Z,59122.03
2022-09-18T22:36:55.601Z,59088.16
2022-09-18T22:39:24.394Z,59122.03
2022-09-18T22:41:52.752Z,59038.38
2022-09-18T22:44:23.189Z,58827.31
2022-09-18T22:46:53.400Z,58819.34
2022-09-18T22:49:24.188Z,59040.38
2022-09-18T22:51:53.147Z,59014.50
2022-09-18T22:54:24.718Z,58998.56
2022-09-18T22:56:54.333Z,58839.25
2022-09-18T22:59:28.311Z,58833.28
2022-09-18T23:01:59.277Z,59082.19
2022-09-18T23:04:30.141Z,58843.25
2022-09-18T23:07:01.416Z,58831.28
2022-09-18T23:09:30.384Z,58578.44
2022-09-18T23:12:00.004Z,58703.88
2022-09-18T23:14:31.571Z,58528.66
2022-09-18T23:17:01.190Z,58723.78
2022-09-18T23:19:32.446Z,58968.69
2022-09-18T23:22:01.466Z,58861.16
2022-09-18T23:24:31.728Z,58652.09
2022-09-18T23:27:00.270Z,58863.16
2022-09-18T23:29:31.992Z,58895.00
2022-09-18T23:32:00.690Z,58516.72
2022-09-18T23:34:31.175Z,58265.84
2022-09-18T23:36:59.784Z,57963.25
2022-09-18T23:39:33.696Z,57505.44
2022-09-18T23:42:03.670Z,57117.31
2022-09-18T23:44:33.475Z,56880.50
2022-09-18T23:47:02.364Z,56623.78
2022-09-18T23:49:31.594Z,56347.19
2022-09-18T23:52:01.637Z,56211.91
2022-09-18T23:54:31.609Z,56040.78
2022-09-18T23:57:00.614Z,55905.50
2022-09-18T23:59:29.563Z,55742.38
